TimeEDT,TemperatureF,Dew PointF,Humidity,Sea Level PressureIn,VisibilityMPH,Wind Direction,Wind SpeedMPH,Gust SpeedMPH,PrecipitationIn,Events,Conditions,WindDirDegrees,DateUTC
12:15 AM,55.4,51.8,88,30.13,7.0,NE,3.5,-,N/A,,Overcast,40,2013-05-06 04:15:00
12:35 AM,55.4,53.6,94,30.13,5.0,ENE,3.5,-,N/A,,Overcast,70,2013-05-06 04:35:00
12:55 AM,55.4,53.6,94,30.11,7.0,ENE,4.6,-,N/A,,Overcast,60,2013-05-06 04:55:00
1:15 AM,55.4,53.6,94,30.11,10.0,ENE,5.8,-,N/A,,Overcast,70,2013-05-06 05:15:00
1:35 AM,57.2,53.6,88,30.11,10.0,ENE,4.6,-,N/A,,Overcast,70,2013-05-06 05:35:00
1:55 AM,55.4,53.6,94,30.10,10.0,East,6.9,-,N/A,,Mostly Cloudy,80,2013-05-06 05:55:00
2:15 AM,57.2,53.6,88,30.10,10.0,ENE,4.6,-,N/A,,Overcast,70,2013-05-06 06:15:00
2:35 AM,57.2,53.6,88,30.10,7.0,ENE,4.6,-,N/A,,Overcast,70,2013-05-06 06:35:00
2:55 AM,57.2,53.6,88,30.09,10.0,ENE,3.5,-,N/A,,Overcast,70,2013-05-06 06:55:00
3:15 AM,57.2,53.6,88,30.08,7.0,East,3.5,-,N/A,,Overcast,80,2013-05-06 07:15:00
3:35 AM,57.2,53.6,88,30.08,7.0,Calm,Calm,-,N/A,,Overcast,0,2013-05-06 07:35:00
3:55 AM,57.2,55.4,94,30.08,10.0,Calm,Calm,-,N/A,,Overcast,0,2013-05-06 07:55:00
4:15 AM,57.2,55.4,94,30.07,10.0,NNE,3.5,-,N/A,,Overcast,30,2013-05-06 08:15:00
4:35 AM,57.2,55.4,94,30.08,10.0,ENE,4.6,-,N/A,,Overcast,60,2013-05-06 08:35:00
4:55 AM,57.2,55.4,94,30.07,7.0,NNE,3.5,-,N/A,,Overcast,30,2013-05-06 08:55:00
5:15 AM,57.2,55.4,94,30.07,7.0,Calm,Calm,-,N/A,,Overcast,0,2013-05-06 09:15:00
5:35 AM,59.0,55.4,88,30.07,7.0,ENE,3.5,-,N/A,,Overcast,70,2013-05-06 09:35:00
5:55 AM,59.0,55.4,88,30.07,7.0,NE,3.5,-,N/A,,Overcast,50,2013-05-06 09:55:00
6:15 AM,59.0,55.4,88,30.08,7.0,Calm,Calm,-,N/A,,Overcast,0,2013-05-06 10:15:00
6:35 AM,59.0,55.4,88,30.08,7.0,ENE,3.5,-,N/A,,Overcast,70,2013-05-06 10:35:00
6:55 AM,59.0,57.2,94,30.08,5.0,ENE,3.5,-,N/A,,Overcast,70,2013-05-06 10:55:00
7:15 AM,60.8,57.2,88,30.08,5.0,Calm,Calm,-,N/A,,Overcast,0,2013-05-06 11:15:00
7:35 AM,60.8,57.2,88,30.08,5.0,NE,4.6,-,N/A,,Overcast,40,2013-05-06 11:35:00
7:55 AM,60.8,57.2,88,30.08,4.0,North,3.5,-,N/A,,Overcast,10,2013-05-06 11:55:00
8:15 AM,60.8,57.2,88,30.08,4.0,East,3.5,-,N/A,,Overcast,80,2013-05-06 12:15:00
8:35 AM,62.6,59.0,88,30.08,5.0,Calm,Calm,-,N/A,,Overcast,0,2013-05-06 12:35:00
8:55 AM,62.6,59.0,88,30.08,5.0,NE,3.5,-,N/A,,Overcast,50,2013-05-06 12:55:00
9:15 AM,62.6,60.8,94,30.09,7.0,NE,3.5,-,N/A,,Overcast,50,2013-05-06 13:15:00
9:35 AM,62.6,60.8,94,30.09,7.0,ENE,3.5,-,N/A,,Overcast,60,2013-05-06 13:35:00
9:55 AM,64.4,60.8,88,30.08,7.0,East,4.6,-,N/A,,Overcast,80,2013-05-06 13:55:00
10:15 AM,64.4,60.8,88,30.08,7.0,East,6.9,-,N/A,,Overcast,80,2013-05-06 14:15:00
10:35 AM,66.2,60.8,83,30.08,10.0,NE,3.5,-,N/A,,Overcast,50,2013-05-06 14:35:00
10:55 AM,66.2,62.6,88,30.08,10.0,East,5.8,-,N/A,,Overcast,80,2013-05-06 14:55:00
11:15 AM,68.0,60.8,78,30.08,10.0,ESE,10.4,20.7,N/A,,Mostly Cloudy,110,2013-05-06 15:15:00
11:35 AM,66.2,60.8,83,30.08,10.0,East,4.6,19.6,N/A,,Mostly Cloudy,100,2013-05-06 15:35:00
11:55 AM,69.8,60.8,73,30.08,10.0,ESE,6.9,-,N/A,,Mostly Cloudy,120,2013-05-06 15:55:00
12:15 PM,69.8,60.8,73,30.07,10.0,East,5.8,-,N/A,,Mostly Cloudy,100,2013-05-06 16:15:00
12:35 PM,69.8,60.8,73,30.05,10.0,East,8.1,20.7,N/A,,Scattered Clouds,100,2013-05-06 16:35:00
12:55 PM,73.4,62.6,69,30.04,10.0,East,9.2,20.7,N/A,,Scattered Clouds,90,2013-05-06 16:55:00
1:15 PM,73.4,60.8,65,30.04,10.0,East,15.0,23.0,N/A,,Clear,100,2013-05-06 17:15:00
1:35 PM,71.6,60.8,69,30.04,10.0,East,16.1,23.0,N/A,,Scattered Clouds,100,2013-05-06 17:35:00
1:55 PM,73.4,60.8,65,30.03,10.0,East,12.7,21.9,N/A,,Clear,90,2013-05-06 17:55:00
2:15 PM,75.2,62.6,65,30.02,10.0,East,8.1,20.7,N/A,,Clear,100,2013-05-06 18:15:00
2:35 PM,73.4,60.8,65,30.02,10.0,East,13.8,23.0,N/A,,Scattered Clouds,90,2013-05-06 18:35:00
2:55 PM,73.4,60.8,65,30.01,10.0,East,11.5,24.2,N/A,,Scattered Clouds,90,2013-05-06 18:55:00
3:15 PM,73.4,62.6,69,30.01,10.0,East,9.2,21.9,N/A,,Scattered Clouds,90,2013-05-06 19:15:00
3:35 PM,71.6,60.8,69,30.00,10.0,ENE,5.8,18.4,N/A,,Scattered Clouds,70,2013-05-06 19:35:00
3:55 PM,71.6,60.8,69,29.99,10.0,East,12.7,20.7,N/A,,Scattered Clouds,80,2013-05-06 19:55:00
4:15 PM,71.6,60.8,69,30.00,10.0,East,12.7,20.7,N/A,,Scattered Clouds,90,2013-05-06 20:15:00
4:35 PM,71.6,60.8,69,29.99,10.0,East,6.9,17.3,N/A,,Scattered Clouds,100,2013-05-06 20:35:00
4:55 PM,69.8,60.8,73,29.99,10.0,ESE,13.8,23.0,N/A,,Scattered Clouds,120,2013-05-06 20:55:00
5:15 PM,69.8,60.8,73,29.99,10.0,East,4.6,20.7,N/A,,Mostly Cloudy,100,2013-05-06 21:15:00
5:35 PM,69.8,60.8,73,29.99,10.0,East,3.5,18.4,N/A,,Mostly Cloudy,90,2013-05-06 21:35:00
5:55 PM,68.0,60.8,78,29.99,10.0,East,5.8,18.4,N/A,,Mostly Cloudy,100,2013-05-06 21:55:00
6:15 PM,66.2,60.8,83,29.99,10.0,East,9.2,16.1,N/A,,Mostly Cloudy,100,2013-05-06 22:15:00
6:55 PM,64.4,60.8,88,29.99,10.0,East,9.2,-,N/A,,Scattered Clouds,90,2013-05-06 22:55:00
7:15 PM,64.4,60.8,88,29.99,7.0,East,5.8,-,N/A,,Scattered Clouds,80,2013-05-06 23:15:00
7:35 PM,62.6,60.8,94,29.99,7.0,East,9.2,-,N/A,,Mostly Cloudy,90,2013-05-06 23:35:00
7:55 PM,62.6,60.8,94,29.98,10.0,East,8.1,-,N/A,,Overcast,80,2013-05-06 23:55:00
8:15 PM,62.6,60.8,94,29.99,10.0,East,6.9,-,N/A,,Overcast,90,2013-05-07 00:15:00
8:35 PM,62.6,60.8,94,30.00,10.0,ENE,5.8,-,N/A,,Mostly Cloudy,70,2013-05-07 00:35:00
8:55 PM,62.6,60.8,94,30.00,10.0,ENE,3.5,-,N/A,,Overcast,70,2013-05-07 00:55:00
9:15 PM,62.6,60.8,94,30.00,10.0,ENE,4.6,-,N/A,,Overcast,70,2013-05-07 01:15:00
9:35 PM,62.6,60.8,94,30.01,10.0,East,6.9,-,N/A,,Overcast,90,2013-05-07 01:35:00
9:55 PM,62.6,60.8,94,30.01,10.0,East,6.9,-,N/A,,Overcast,80,2013-05-07 01:55:00
10:15 PM,62.6,60.8,94,30.01,10.0,East,4.6,-,N/A,,Overcast,90,2013-05-07 02:15:00
10:35 PM,62.6,60.8,94,30.01,3.0,East,5.8,-,0.01,,Overcast,80,2013-05-07 02:35:00
10:55 PM,62.6,60.8,94,30.00,5.0,Calm,Calm,-,0.03,,Overcast,0,2013-05-07 02:55:00
11:15 PM,62.6,60.8,94,30.00,10.0,East,3.5,-,0.01,,Overcast,100,2013-05-07 03:15:00
11:35 PM,62.6,60.8,94,30.00,7.0,East,3.5,-,0.02,,Overcast,90,2013-05-07 03:35:00
11:55 PM,62.6,60.8,94,29.99,2.5,East,4.6,-,0.05,,Overcast,80,2013-05-07 03:55:00